createdAt,value
2022-12-06T00:01:08.995Z,12.20
2022-12-06T00:03:38.166Z,13.63
2022-12-06T00:06:08.077Z,12.67
2022-12-06T00:08:36.447Z,13.90
2022-12-06T00:11:06.369Z,13.17
2022-12-06T00:13:34.741Z,13.33
2022-12-06T00:16:06.029Z,14.10
2022-12-06T00:18:36.137Z,13.53
2022-12-06T00:21:09.722Z,13.60
2022-12-06T00:23:38.590Z,13.77
2022-12-06T00:26:07.588Z,13.33
2022-12-06T00:28:36.558Z,14.40
2022-12-06T00:31:09.373Z,14.13
2022-12-06T00:33:38.406Z,13.33
2022-12-06T00:36:08.258Z,13.50
2022-12-06T00:38:36.562Z,13.27
2022-12-06T00:41:06.630Z,13.47
2022-12-06T00:43:35.197Z,13.57
2022-12-06T00:46:04.023Z,14.03
2022-12-06T00:48:33.923Z,14.20
2022-12-06T00:51:02.161Z,13.87
2022-12-06T00:53:30.505Z,13.90
2022-12-06T00:55:58.370Z,13.53
2022-12-06T00:58:26.384Z,12.93
2022-12-06T01:00:54.653Z,13.03
2022-12-06T01:03:23.627Z,13.77
2022-12-06T01:05:53.117Z,14.60
2022-12-06T01:08:21.253Z,14.60
2022-12-06T01:10:55.912Z,13.73
2022-12-06T01:13:23.924Z,14.87
2022-12-06T01:15:51.914Z,14.87
2022-12-06T01:18:19.821Z,14.33
2022-12-06T01:20:47.910Z,14.03
2022-12-06T01:23:17.253Z,14.20
2022-12-06T01:25:51.464Z,15.57
2022-12-06T01:28:19.960Z,14.30
2022-12-06T01:30:47.923Z,14.60
2022-12-06T01:33:15.859Z,13.83
2022-12-06T01:35:44.183Z,13.97
2022-12-06T01:38:12.858Z,13.60
2022-12-06T01:40:44.817Z,14.87
2022-12-06T01:43:31.251Z,15.23
2022-12-06T01:46:03.438Z,14.70
2022-12-06T01:48:31.610Z,15.10
2022-12-06T01:51:01.052Z,14.90
2022-12-06T01:53:29.127Z,14.33
2022-12-06T01:55:58.542Z,14.77
2022-12-06T01:58:32.455Z,14.83
2022-12-06T02:01:01.749Z,14.83
2022-12-06T02:03:33.329Z,13.90
2022-12-06T02:06:02.500Z,14.83
2022-12-06T02:08:31.424Z,14.73
2022-12-06T02:11:03.728Z,15.57
2022-12-06T02:13:34.907Z,14.80
2022-12-06T02:16:14.519Z,14.80
2022-12-06T02:18:48.785Z,15.23
2022-12-06T02:21:25.155Z,14.93
2022-12-06T02:24:16.212Z,15.53
2022-12-06T02:26:48.738Z,15.53
2022-12-06T02:29:46.818Z,14.77
2022-12-06T02:32:19.576Z,15.97
2022-12-06T02:34:55.680Z,15.77
2022-12-06T02:37:30.854Z,15.13
2022-12-06T02:40:04.209Z,15.97
2022-12-06T02:42:36.910Z,16.13
2022-12-06T02:45:10.562Z,15.47
2022-12-06T02:47:40.783Z,16.33
2022-12-06T02:50:12.934Z,15.87
2022-12-06T02:52:44.759Z,16.70
2022-12-06T02:55:14.327Z,15.00
2022-12-06T02:57:44.944Z,16.00
2022-12-06T03:00:33.422Z,15.43
2022-12-06T03:03:15.708Z,16.73
2022-12-06T03:05:54.542Z,16.67
2022-12-06T03:08:35.073Z,15.87
2022-12-06T03:11:04.421Z,15.93
2022-12-06T03:13:40.955Z,16.70
2022-12-06T03:16:18.146Z,16.73
2022-12-06T03:18:54.770Z,16.13
2022-12-06T03:21:26.725Z,16.40
2022-12-06T03:23:55.188Z,17.10
2022-12-06T03:26:33.554Z,15.53
2022-12-06T03:29:04.473Z,17.13
2022-12-06T03:31:35.054Z,17.07
2022-12-06T03:34:10.289Z,16.73
2022-12-06T03:36:40.669Z,16.63
2022-12-06T03:39:09.520Z,17.13
2022-12-06T03:41:42.568Z,15.83
2022-12-06T03:44:10.512Z,17.50
2022-12-06T03:46:42.727Z,16.13
2022-12-06T03:49:17.147Z,17.23
2022-12-06T03:51:46.352Z,17.07
2022-12-06T03:54:14.692Z,16.60
2022-12-06T03:56:42.557Z,16.43
2022-12-06T03:59:12.272Z,16.53
2022-12-06T04:01:40.895Z,16.50
2022-12-06T04:04:08.880Z,16.33
2022-12-06T04:06:38.303Z,16.80
2022-12-06T04:09:23.625Z,18.10
2022-12-06T04:11:51.434Z,17.23
2022-12-06T04:14:19.280Z,17.93
2022-12-06T04:17:04.536Z,16.23
2022-12-06T04:19:32.787Z,17.27
2022-12-06T04:22:18.546Z,17.53
2022-12-06T04:24:46.369Z,16.47
2022-12-06T04:27:31.613Z,16.63
2022-12-06T04:30:16.916Z,17.17
2022-12-06T04:33:02.080Z,18.13
2022-12-06T04:35:47.267Z,17.37
2022-12-06T04:38:34.067Z,17.17
2022-12-06T04:41:01.923Z,18.00
2022-12-06T04:43:43.711Z,16.73
2022-12-06T04:46:12.595Z,16.37
2022-12-06T04:48:41.292Z,16.83
2022-12-06T04:51:12.803Z,16.37
2022-12-06T04:53:42.197Z,15.90
2022-12-06T04:56:10.083Z,16.43
2022-12-06T04:58:37.880Z,17.30
2022-12-06T05:01:05.827Z,16.33
2022-12-06T05:03:33.973Z,16.60
2022-12-06T05:06:01.945Z,16.63
2022-12-06T05:08:29.827Z,17.40
2022-12-06T05:10:59.238Z,16.23
2022-12-06T05:13:27.330Z,16.57
2022-12-06T05:15:57.448Z,17.33
2022-12-06T05:18:25.884Z,17.17
2022-12-06T05:21:02.750Z,17.00
2022-12-06T05:23:30.774Z,16.23
2022-12-06T05:26:00.935Z,17.40
2022-12-06T05:28:29.718Z,17.10
2022-12-06T05:30:58.027Z,17.67
2022-12-06T05:33:26.730Z,17.43
2022-12-06T05:35:54.868Z,17.03
2022-12-06T05:38:23.357Z,17.90
2022-12-06T05:40:51.368Z,15.90
2022-12-06T05:43:20.742Z,16.90
2022-12-06T05:45:53.999Z,17.07
2022-12-06T05:48:22.196Z,17.67
2022-12-06T05:50:50.648Z,16.43
2022-12-06T05:53:18.790Z,17.03
2022-12-06T05:55:46.866Z,17.10
2022-12-06T05:58:15.351Z,17.87
2022-12-06T06:00:47.571Z,17.93
2022-12-06T06:03:15.817Z,17.23
2022-12-06T06:05:48.705Z,17.93
2022-12-06T06:08:17.379Z,17.33
2022-12-06T06:10:45.972Z,16.80
2022-12-06T06:13:13.908Z,17.43
2022-12-06T06:15:41.974Z,19.10
2022-12-06T06:18:11.385Z,18.03
2022-12-06T06:20:39.343Z,17.33
2022-12-06T06:23:07.237Z,17.00
2022-12-06T06:25:35.307Z,16.70
2022-12-06T06:28:03.154Z,17.40
2022-12-06T06:30:30.995Z,17.17
2022-12-06T06:32:58.906Z,18.17
2022-12-06T06:35:28.394Z,17.57
2022-12-06T06:37:56.359Z,17.50
2022-12-06T06:40:24.546Z,16.67
2022-12-06T06:42:52.434Z,16.80
2022-12-06T06:45:26.742Z,16.73
2022-12-06T06:47:56.363Z,16.17
2022-12-06T06:50:24.188Z,18.23
2022-12-06T06:52:53.387Z,17.80
2022-12-06T06:55:21.260Z,16.90
2022-12-06T06:57:49.421Z,17.53
2022-12-06T07:00:18.792Z,17.73
2022-12-06T07:02:46.758Z,17.63
2022-12-06T07:05:14.564Z,16.83
2022-12-06T07:07:42.786Z,16.83
2022-12-06T07:10:13.264Z,15.83
2022-12-06T07:12:41.139Z,17.77
2022-12-06T07:15:10.129Z,17.80
2022-12-06T07:17:38.349Z,16.80
2022-12-06T07:20:07.496Z,17.13
2022-12-06T07:22:35.338Z,17.63
2022-12-06T07:25:03.212Z,17.50
2022-12-06T07:27:36.705Z,17.30
2022-12-06T07:30:05.616Z,17.30
2022-12-06T07:32:35.231Z,17.07
2022-12-06T07:35:04.422Z,17.57
2022-12-06T07:37:32.920Z,18.07
2022-12-06T07:40:01.200Z,18.27
2022-12-06T07:42:46.864Z,18.37
2022-12-06T07:45:16.983Z,17.63
2022-12-06T07:47:45.819Z,18.17
2022-12-06T07:50:18.185Z,17.30
2022-12-06T07:52:47.725Z,17.40
2022-12-06T07:55:17.248Z,18.03
2022-12-06T07:57:46.258Z,18.13
2022-12-06T08:00:17.294Z,17.83
2022-12-06T08:02:45.945Z,16.27
2022-12-06T08:05:14.042Z,17.47
2022-12-06T08:07:41.890Z,17.30
2022-12-06T08:10:10.088Z,17.20
2022-12-06T08:12:38.160Z,17.83
2022-12-06T08:15:12.868Z,17.10
2022-12-06T08:17:42.755Z,18.10
2022-12-06T08:20:12.359Z,18.43
2022-12-06T08:22:40.241Z,17.30
2022-12-06T08:25:09.090Z,18.13
2022-12-06T08:27:37.063Z,19.27
2022-12-06T08:30:06.020Z,19.10
2022-12-06T08:32:33.843Z,17.73
2022-12-06T08:35:03.159Z,18.97
2022-12-06T08:37:31.253Z,18.00
2022-12-06T08:39:59.318Z,18.53
2022-12-06T08:42:27.600Z,18.27
2022-12-06T08:44:55.544Z,17.40
2022-12-06T08:47:23.494Z,18.07
2022-12-06T08:49:51.659Z,16.87
2022-12-06T08:52:20.902Z,17.07
2022-12-06T08:54:48.887Z,17.73
2022-12-06T08:57:17.024Z,16.77
2022-12-06T08:59:45.168Z,10.27
2022-12-06T09:02:14.203Z,7.40
2022-12-06T09:04:42.226Z,10.40
2022-12-06T09:07:12.001Z,10.40
2022-12-06T09:09:41.915Z,8.20
2022-12-06T09:12:09.921Z,7.40
2022-12-06T09:14:37.937Z,7.30
2022-12-06T09:17:07.048Z,6.63
2022-12-06T09:19:35.117Z,7.10
2022-12-06T09:22:03.150Z,6.20
2022-12-06T09:24:31.398Z,6.20
2022-12-06T09:27:00.887Z,6.57
2022-12-06T09:29:28.816Z,6.40
2022-12-06T09:31:56.708Z,6.23
2022-12-06T09:34:24.741Z,5.97
2022-12-06T09:36:56.349Z,5.77
2022-12-06T09:39:28.810Z,6.60
2022-12-06T09:42:20.760Z,6.00
2022-12-06T09:45:07.749Z,5.70
2022-12-06T09:47:51.647Z,6.03
2022-12-06T09:50:29.549Z,6.10
2022-12-06T09:53:13.676Z,7.03
2022-12-06T09:56:00.912Z,6.43
2022-12-06T09:58:43.568Z,6.07
2022-12-06T10:01:21.060Z,5.93
2022-12-06T10:04:00.175Z,5.80
2022-12-06T10:06:35.904Z,5.80
2022-12-06T10:09:33.013Z,5.73
2022-12-06T10:12:16.918Z,5.70
2022-12-06T10:15:04.575Z,6.30
2022-12-06T10:17:42.327Z,5.60
2022-12-06T10:20:19.430Z,5.67
2022-12-06T10:23:02.426Z,6.97
2022-12-06T10:25:35.338Z,6.17
2022-12-06T10:28:12.692Z,6.47
2022-12-06T10:30:48.156Z,5.90
2022-12-06T10:33:22.505Z,6.10
2022-12-06T10:35:56.521Z,6.70
2022-12-06T10:38:31.449Z,5.93
2022-12-06T10:41:10.380Z,6.60
2022-12-06T10:43:49.685Z,9.90
2022-12-06T10:46:45.862Z,10.23
2022-12-06T10:49:20.479Z,10.60
2022-12-06T10:51:55.504Z,10.43
2022-12-06T10:54:30.271Z,10.70
2022-12-06T10:57:03.421Z,11.17
2022-12-06T10:59:37.724Z,10.03
2022-12-06T11:02:22.738Z,9.27
2022-12-06T11:04:52.694Z,8.57
2022-12-06T11:07:25.104Z,7.30
2022-12-06T11:09:55.140Z,6.70
2022-12-06T11:12:31.403Z,4.93
2022-12-06T11:15:05.286Z,5.10
2022-12-06T11:17:39.728Z,4.47
2022-12-06T11:20:20.060Z,4.23
2022-12-06T11:22:56.291Z,4.60
2022-12-06T11:25:30.545Z,4.70
2022-12-06T11:28:06.530Z,4.03
2022-12-06T11:30:34.829Z,4.10
2022-12-06T11:33:06.022Z,4.90
2022-12-06T11:35:34.140Z,5.33
2022-12-06T11:38:05.232Z,5.03
2022-12-06T11:40:37.039Z,5.40
2022-12-06T11:43:08.196Z,5.77
2022-12-06T11:45:39.302Z,5.87
2022-12-06T11:48:16.544Z,6.30
2022-12-06T11:50:45.975Z,5.93
2022-12-06T11:53:20.291Z,5.63
2022-12-06T11:55:52.046Z,5.63
2022-12-06T11:58:28.050Z,5.63
2022-12-06T12:01:02.390Z,5.50
2022-12-06T12:03:33.937Z,5.53
2022-12-06T12:06:09.568Z,5.87
2022-12-06T12:08:38.433Z,5.73
2022-12-06T12:11:06.418Z,5.80
2022-12-06T12:13:47.448Z,6.23
2022-12-06T12:16:20.100Z,6.63
2022-12-06T12:18:57.279Z,6.30
2022-12-06T12:21:36.436Z,6.17
2022-12-06T12:24:06.023Z,6.07
2022-12-06T12:26:40.646Z,5.13
2022-12-06T12:29:19.913Z,5.60
2022-12-06T12:31:53.870Z,6.57
2022-12-06T12:34:25.892Z,5.63
2022-12-06T12:36:56.423Z,5.93
2022-12-06T12:39:33.449Z,5.37
2022-12-06T12:42:02.842Z,4.87
2022-12-06T12:44:38.699Z,4.53
2022-12-06T12:47:18.284Z,4.27
2022-12-06T12:50:01.665Z,4.40
2022-12-06T12:52:31.826Z,4.30
2022-12-06T12:55:03.017Z,4.60
2022-12-06T12:57:31.412Z,3.90
2022-12-06T12:59:59.331Z,3.90
2022-12-06T13:02:30.802Z,3.67
2022-12-06T13:07:54.580Z,3.90
2022-12-06T13:10:28.274Z,4.40
2022-12-06T13:12:59.906Z,4.00
2022-12-06T13:15:35.187Z,4.97
2022-12-06T13:18:11.577Z,4.40
2022-12-06T13:20:41.930Z,3.93
2022-12-06T13:23:14.394Z,3.90
2022-12-06T13:25:46.514Z,4.00
2022-12-06T13:28:20.083Z,3.90
2022-12-06T13:30:51.465Z,3.70
2022-12-06T13:33:23.221Z,4.03
2022-12-06T13:35:56.959Z,4.10
2022-12-06T13:38:30.489Z,3.80
2022-12-06T13:40:58.995Z,3.93
2022-12-06T13:43:57.664Z,3.93
2022-12-06T13:46:31.261Z,4.63
2022-12-06T13:49:01.788Z,4.20
2022-12-06T13:51:48.414Z,3.87
2022-12-06T13:54:31.236Z,4.17
2022-12-06T13:57:00.374Z,4.00
2022-12-06T13:59:46.204Z,3.83
2022-12-06T14:02:50.721Z,3.63
2022-12-06T14:08:33.208Z,3.80
2022-12-06T14:11:17.124Z,4.03
2022-12-06T14:13:47.125Z,3.90
2022-12-06T14:16:22.346Z,3.73
2022-12-06T14:18:51.370Z,3.10
2022-12-06T14:21:25.440Z,3.20
2022-12-06T14:23:54.833Z,3.00
2022-12-06T14:26:25.538Z,3.00
2022-12-06T14:28:56.436Z,3.27
2022-12-06T14:31:28.683Z,3.20
2022-12-06T14:33:57.675Z,4.23
2022-12-06T14:36:30.029Z,3.57
2022-12-06T14:39:02.393Z,3.87
2022-12-06T14:41:54.239Z,3.37
2022-12-06T14:44:28.689Z,3.57
2022-12-06T14:46:57.588Z,3.67
2022-12-06T14:49:45.257Z,3.93
2022-12-06T14:52:23.439Z,3.70
2022-12-06T14:54:54.466Z,3.80
2022-12-06T14:57:27.317Z,3.33
2022-12-06T15:00:26.275Z,3.10
2022-12-06T15:03:26.112Z,3.60
2022-12-06T15:06:14.950Z,4.47
2022-12-06T15:08:44.370Z,3.80
2022-12-06T15:11:50.563Z,3.63
2022-12-06T15:14:22.067Z,3.40
2022-12-06T15:16:59.400Z,3.50
2022-12-06T15:19:27.704Z,3.47
2022-12-06T15:21:55.883Z,3.57
2022-12-06T15:24:25.329Z,3.87
2022-12-06T15:26:55.190Z,3.53
2022-12-06T15:29:23.096Z,3.70
2022-12-06T15:31:54.865Z,4.57
2022-12-06T15:34:26.742Z,3.53
2022-12-06T15:37:15.243Z,3.50
2022-12-06T15:39:44.061Z,4.20
2022-12-06T15:42:18.513Z,3.73
2022-12-06T15:44:49.463Z,3.40
2022-12-06T15:47:19.478Z,3.83
2022-12-06T15:49:47.870Z,4.87
2022-12-06T15:52:18.316Z,4.30
2022-12-06T15:54:46.837Z,3.83
2022-12-06T15:57:16.232Z,4.23
2022-12-06T15:59:44.008Z,4.80
2022-12-06T16:02:15.582Z,4.50
2022-12-06T16:04:43.850Z,4.53
2022-12-06T16:07:13.282Z,4.13
2022-12-06T16:09:41.283Z,4.23
2022-12-06T16:12:10.662Z,4.27
2022-12-06T16:14:40.053Z,4.00
2022-12-06T16:17:08.387Z,4.13
2022-12-06T16:19:53.540Z,4.40
2022-12-06T16:22:41.909Z,4.40
2022-12-06T16:25:09.077Z,4.77
2022-12-06T16:27:37.070Z,4.27
2022-12-06T16:30:07.975Z,4.07
2022-12-06T16:32:35.820Z,4.93
2022-12-06T16:35:03.988Z,4.83
2022-12-06T16:37:32.139Z,4.57
2022-12-06T16:39:59.993Z,4.30
2022-12-06T16:42:27.857Z,4.83
2022-12-06T16:44:55.820Z,4.80
2022-12-06T16:49:51.915Z,4.30
2022-12-06T16:52:19.908Z,5.10
2022-12-06T16:54:47.795Z,5.30
2022-12-06T16:57:16.208Z,5.23
2022-12-06T16:59:44.205Z,5.80
2022-12-06T17:02:28.271Z,5.20
2022-12-06T17:04:57.056Z,5.23
2022-12-06T17:07:24.955Z,5.50
2022-12-06T17:09:52.995Z,6.80
2022-12-06T17:12:21.611Z,5.90
2022-12-06T17:14:49.701Z,5.73
2022-12-06T17:17:20.111Z,6.30
2022-12-06T17:19:50.633Z,6.40
2022-12-06T17:22:19.005Z,7.83
2022-12-06T17:24:46.918Z,6.57
2022-12-06T17:27:15.469Z,6.93
2022-12-06T17:29:44.579Z,10.90
2022-12-06T17:32:13.034Z,8.63
2022-12-06T17:34:41.000Z,6.60
2022-12-06T17:37:10.891Z,5.63
2022-12-06T17:39:39.335Z,6.10
2022-12-06T17:42:25.067Z,6.00
2022-12-06T17:44:53.666Z,6.00
2022-12-06T17:47:21.748Z,5.47
2022-12-06T17:49:49.649Z,5.47
2022-12-06T17:52:19.173Z,5.37
2022-12-06T17:54:47.170Z,6.00
2022-12-06T17:57:18.180Z,5.63
2022-12-06T17:59:47.489Z,8.50
2022-12-06T18:02:18.451Z,7.30
2022-12-06T18:04:47.431Z,6.23
2022-12-06T18:07:16.665Z,5.47
2022-12-06T18:09:46.375Z,5.43
2022-12-06T18:12:16.344Z,6.10
2022-12-06T18:14:44.334Z,6.03
2022-12-06T18:17:12.889Z,6.87
2022-12-06T18:19:41.489Z,5.50
2022-12-06T18:22:09.714Z,5.40
2022-12-06T18:24:37.719Z,6.03
2022-12-06T18:27:07.976Z,6.17
2022-12-06T18:29:36.372Z,5.90
2022-12-06T18:32:05.052Z,5.77
2022-12-06T18:34:33.109Z,5.83
2022-12-06T18:37:01.279Z,6.00
2022-12-06T18:39:29.189Z,5.90
2022-12-06T18:41:57.118Z,5.30
2022-12-06T18:44:26.998Z,6.10
2022-12-06T18:46:55.012Z,5.83
2022-12-06T18:49:22.888Z,5.57
2022-12-06T18:51:50.854Z,5.60
2022-12-06T18:54:18.863Z,5.87
2022-12-06T18:56:46.912Z,5.57
2022-12-06T18:59:14.940Z,6.07
2022-12-06T19:01:44.488Z,5.60
2022-12-06T19:04:14.839Z,6.00
2022-12-06T19:06:44.581Z,6.57
2022-12-06T19:09:15.839Z,10.43
2022-12-06T19:11:45.958Z,9.03
2022-12-06T19:14:14.551Z,6.67
2022-12-06T19:16:45.834Z,6.53
2022-12-06T19:19:17.123Z,7.03
2022-12-06T19:21:46.671Z,6.40
2022-12-06T19:24:17.082Z,6.40
2022-12-06T19:26:46.044Z,6.90
2022-12-06T19:29:14.624Z,6.83
2022-12-06T19:31:44.526Z,6.97
2022-12-06T19:34:16.706Z,7.03
2022-12-06T19:36:45.422Z,9.80
2022-12-06T19:39:13.854Z,12.10
2022-12-06T19:41:55.845Z,15.47
2022-12-06T19:44:24.392Z,10.67
2022-12-06T19:46:54.606Z,7.77
2022-12-06T19:49:24.505Z,7.27
2022-12-06T19:51:53.510Z,6.93
2022-12-06T19:54:23.392Z,7.73
2022-12-06T19:56:53.234Z,8.40
2022-12-06T19:59:22.016Z,8.70
2022-12-06T20:01:51.004Z,10.03
2022-12-06T20:04:23.790Z,8.63
2022-12-06T20:06:52.361Z,7.80
2022-12-06T20:09:24.694Z,9.00
2022-12-06T20:12:05.388Z,7.87
2022-12-06T20:14:39.379Z,7.07
2022-12-06T20:17:09.423Z,6.93
2022-12-06T20:19:39.526Z,7.37
2022-12-06T20:22:07.550Z,7.13
2022-12-06T20:24:35.687Z,7.60
2022-12-06T20:27:03.784Z,7.90
2022-12-06T20:29:32.692Z,7.40
2022-12-06T20:32:01.457Z,8.23
2022-12-06T20:34:34.162Z,8.93
2022-12-06T20:37:06.168Z,6.97
2022-12-06T20:39:35.877Z,7.50
2022-12-06T20:42:05.881Z,8.13
2022-12-06T20:44:34.721Z,7.30
2022-12-06T20:47:02.913Z,7.83
2022-12-06T20:49:31.076Z,8.93
2022-12-06T20:52:02.073Z,8.07
2022-12-06T20:54:31.896Z,8.23
2022-12-06T20:56:59.893Z,6.97
2022-12-06T20:59:29.361Z,8.17
2022-12-06T21:01:57.769Z,7.50
2022-12-06T21:04:26.620Z,7.70
2022-12-06T21:06:54.564Z,7.80
2022-12-06T21:09:22.731Z,7.73
2022-12-06T21:11:52.255Z,8.20
2022-12-06T21:14:20.353Z,7.70
2022-12-06T21:16:48.314Z,8.13
2022-12-06T21:19:18.402Z,8.57
2022-12-06T21:21:48.207Z,8.47
2022-12-06T21:24:17.683Z,8.37
2022-12-06T21:26:45.923Z,8.80
2022-12-06T21:29:17.167Z,8.53
2022-12-06T21:31:45.223Z,8.23
2022-12-06T21:34:13.382Z,8.03
2022-12-06T21:36:41.909Z,8.53
2022-12-06T21:39:12.378Z,8.37
2022-12-06T21:41:40.442Z,8.80
2022-12-06T21:44:08.338Z,9.50
2022-12-06T21:46:37.670Z,9.07
2022-12-06T21:49:05.608Z,9.23
2022-12-06T21:51:33.874Z,9.17
2022-12-06T21:54:02.591Z,9.10
2022-12-06T21:56:32.831Z,9.80
2022-12-06T21:59:01.470Z,8.97
2022-12-06T22:01:31.237Z,9.00
2022-12-06T22:04:03.039Z,10.10
2022-12-06T22:06:31.521Z,9.70
2022-12-06T22:09:01.758Z,9.47
2022-12-06T22:11:30.256Z,9.83
2022-12-06T22:13:58.775Z,8.97
2022-12-06T22:16:27.323Z,9.87
2022-12-06T22:18:55.495Z,10.50
2022-12-06T22:21:27.357Z,9.90
2022-12-06T22:23:57.418Z,9.00
2022-12-06T22:26:28.133Z,9.63
2022-12-06T22:28:56.645Z,10.50
2022-12-06T22:31:26.559Z,10.10
2022-12-06T22:33:54.774Z,10.23
2022-12-06T22:36:24.460Z,9.60
2022-12-06T22:38:53.846Z,10.53
2022-12-06T22:41:22.283Z,10.40
2022-12-06T22:43:52.471Z,10.20
2022-12-06T22:46:21.272Z,10.97
2022-12-06T22:48:49.970Z,11.17
2022-12-06T22:51:19.853Z,10.33
2022-12-06T22:53:53.199Z,10.60
2022-12-06T22:56:21.452Z,10.90
2022-12-06T22:58:49.416Z,10.20
2022-12-06T23:01:20.409Z,11.07
2022-12-06T23:03:49.775Z,11.23
2022-12-06T23:06:19.837Z,11.20
2022-12-06T23:08:49.518Z,10.77
2022-12-06T23:11:19.825Z,11.13
2022-12-06T23:13:48.011Z,11.17
2022-12-06T23:16:17.407Z,11.80
2022-12-06T23:18:45.939Z,11.07
2022-12-06T23:21:15.875Z,11.57
2022-12-06T23:23:46.979Z,11.27
2022-12-06T23:26:18.775Z,11.40
2022-12-06T23:28:47.363Z,11.37
2022-12-06T23:31:17.709Z,11.60
2022-12-06T23:33:46.999Z,12.10
2022-12-06T23:36:18.665Z,11.73
2022-12-06T23:38:46.643Z,11.70
2022-12-06T23:41:18.169Z,11.90
2022-12-06T23:43:46.695Z,11.40
2022-12-06T23:46:21.979Z,10.63
2022-12-06T23:48:50.469Z,11.17
2022-12-06T23:51:19.971Z,12.03
2022-12-06T23:53:51.826Z,10.70
2022-12-06T23:56:22.950Z,11.53
2022-12-06T23:58:51.659Z,11.73
